Terminal Aerodrome Forecast
Issued by NWS

Home | Current Version | Previous Version | Text Only | Print | Product List | Glossary On
Versions: 1 2 3 4 5 6 7 8 9 10 11 12 13
000
FTUS43 KDMX 201138
TAFFOD
TAF
KFOD 201138Z 2012/2112 18008KT P6SM SCT250
     FM201600 18018G25KT P6SM SCT250
     FM210000 17020G26KT P6SM FEW250
     FM211000 17015G23KT P6SM OVC024=

USA.gov is the U.S. government's official web portal to all federal, state and local government web resources and services.